SBOSBO NBO / HKJK
Speedbird OnlineSpeedbird Online NBO / HKJK

Jomo Kenyatta International Airport
09:55 18°C

Location Nairobi, Kenya
Latitude: -1.31923997402
Longitude: 36.9277992249
Web Airport Website | Wikipedia
Altitude 1625 Meter / 5330 Feet
Distance 6,816 KM / 4,235 Miles
from London.
Time Zone UTC +3 hours (Africa/Nairobi)
Codes IATA: NBO
ICAO: HKJK
Currency £1 equals KES 136.91
Runways
RunwayLength (m)Surface
064117Asphalt
244117Asphalt
Radio
TypeDescriptionFrequency
APPAPP122.3
ATISATIS126.2
RMPAPRON CTL121.6
TWRNairobi Tower118.7
Live ATC
METAR HKJK 060600Z 15005KT 9999 BKN019 17/13 Q1024 NOSIG
TAF TAF HKJK 060500Z 0606/0712 19008KT 9999 BKN018 BECMG 0608/0611 13010KT FEW025CB SCT026 TEMPO 0613/0617 -SHRA FEW022CB SCT023 BKN080 BECMG 0620/0623 06005KT NSW BKN018 BECMG 0708/0711 13010KT FEW025CB SCT026
Weather As Of 06 Oct 2022 09:55
Description Broken clouds
Wind 15 km/h from East (90°)
Cloud Cover 75%
Precipitation Rain: none, Snow: none
Sunrise 06:16
Sunset 18:24
Lounges TAV Lounge, International Departures
Kenya Airways Pride Lounge, T1A
Swissport Aspire Lounge, Terminal 1B
Rotations During the last 90 days there were
59 flights from LHR
59 flights to LHR
1 flights to VIE


© 2017-2022 Speedbird Online